Aérodrome :
LOGIN :

S'inscrire | Disclaimer

   EN    FR    IT 

 










Légende :    VFR   VFR Marginal   IFR   IFR Intensif   IFR Très Intensif
Visi : 
Plafond : 
>= 8 km
>= 3000ft
5 à 8 km
1000 à 3000 ft
1500m à 5 km
500 à 1000 ft
800 à 1500m
200 à 500 ft
< 800m
< 200 ft
Symboles :   Orages  Brouillard  Fortes neiges  Fortes précipitations  Vent > 20 kt
SIGMETs :   Divers  Orages  Givrage  Turbulence  Onde Orograph.  Cendres Volcan.






- Altitude de l'aérodrome : 464 ft
- Code IATA : EVX


LFOE - Evreux

DERNIER METAR :
  • 240200Z AUTO VRB02KT 2800 BR OVC003 01/00 Q1024

METARs EXPIRÉS :
  • 240130Z AUTO 08002KT 3900 BR OVC003 01/00 Q1024
  • 240100Z AUTO 08005KT 4200 BR OVC003 01/00 Q1024
  • 240030Z AUTO 07005KT 4400 BR OVC003 01/00 Q1024
  • 240000Z AUTO 04006KT 4600 BR OVC004/// 01/00 Q1024
  • 232330Z AUTO 07005KT 4900 BR OVC004 01/00 Q1025

TAF TAF LFOE
Valide du 23 à 15h jusqu'au 24 à 15h UTC


231400Z 2315/2415 04008KT 9000 OVC006
BECMG 2319/2321 04004KT 3000 BR BKN004
BECMG 2401/2403 1500 BR OVC002
PROB40
TEMPO 2402/2410 0400 FZFG VV///
BECMG 2412/2414 7000 NSW OVC005



MET'MAP, la Météo Aéronautique d'un coup d'oeil ! - Copyright ORBIFLY Décembre 2007 - Disclaimer

ORBIFLY MET'MAP TEAM :

Programmation & Développement : Alexandra Zaïnal
Sur une idée originale de : Baudouin d'Aumeries
Assistance à la programmation : Marc-Olivier Méhu
Soutien technique & logistique : Manuel Goepfert

Contact : metmap@orbifly.com




SOURCES & CREDITS :

   NOAA